createdAt,value
2022-08-18T00:02:28.727Z,23.17
2022-08-18T00:04:57.426Z,23.20
2022-08-18T00:07:27.925Z,23.57
2022-08-18T00:09:55.059Z,24.40
2022-08-18T00:12:27.154Z,24.00
2022-08-18T00:14:54.972Z,24.87
2022-08-18T00:17:22.565Z,25.60
2022-08-18T00:19:49.884Z,25.03
2022-08-18T00:22:19.899Z,24.70
2022-08-18T00:24:50.244Z,23.50
2022-08-18T00:27:23.307Z,24.73
2022-08-18T00:29:52.003Z,24.53
2022-08-18T00:32:26.452Z,29.00
2022-08-18T00:42:30.270Z,24.73
2022-08-18T00:45:01.264Z,23.53
2022-08-18T00:47:42.855Z,23.77
2022-08-18T00:50:15.505Z,26.30
2022-08-18T00:52:49.916Z,26.37
2022-08-18T00:55:18.247Z,25.60
2022-08-18T00:57:48.511Z,25.60
2022-08-18T01:00:15.436Z,25.83
2022-08-18T01:02:47.737Z,25.40
2022-08-18T01:05:22.494Z,23.90
2022-08-18T01:07:51.365Z,26.33
2022-08-18T01:10:21.718Z,25.73
2022-08-18T01:12:56.736Z,24.97
2022-08-18T01:15:28.093Z,25.40
2022-08-18T01:18:21.727Z,27.20
2022-08-18T01:21:21.371Z,25.10
2022-08-18T01:23:48.751Z,26.97
2022-08-18T01:26:17.835Z,26.40
2022-08-18T01:28:46.533Z,27.33
2022-08-18T01:31:29.695Z,27.13
2022-08-18T01:33:57.279Z,26.33
2022-08-18T01:36:23.862Z,25.73
2022-08-18T01:38:52.965Z,27.00
2022-08-18T01:41:29.827Z,26.97
2022-08-18T01:43:59.620Z,28.30
2022-08-18T01:46:28.080Z,30.37
2022-08-18T01:48:58.629Z,31.93
2022-08-18T01:51:36.265Z,29.73
2022-08-18T01:54:05.964Z,30.40
2022-08-18T01:56:32.493Z,29.57
2022-08-18T01:58:59.082Z,30.53
2022-08-18T02:01:36.526Z,28.83
2022-08-18T02:04:31.614Z,29.00
2022-08-18T02:06:53.770Z,30.33
2022-08-18T02:09:23.732Z,31.17
2022-08-18T02:11:51.100Z,30.50
2022-08-18T02:14:20.260Z,32.10
2022-08-18T02:16:55.592Z,33.63
2022-08-18T02:19:28.274Z,37.07
2022-08-18T02:21:54.808Z,34.00
2022-08-18T02:24:21.370Z,32.50
2022-08-18T02:26:47.868Z,31.80
2022-08-18T02:29:14.359Z,30.60
2022-08-18T02:31:40.848Z,36.27
2022-08-18T02:34:07.329Z,36.40
2022-08-18T02:36:33.816Z,38.07
2022-08-18T02:39:00.364Z,32.07
2022-08-18T02:41:29.569Z,32.03
2022-08-18T02:43:57.029Z,32.10
2022-08-18T02:46:23.666Z,33.00
2022-08-18T02:48:56.780Z,32.33
2022-08-18T02:51:23.382Z,29.13
2022-08-18T02:53:53.791Z,30.80
2022-08-18T02:56:33.733Z,33.30
2022-08-18T02:59:10.497Z,31.10
2022-08-18T03:01:39.946Z,33.90
2022-08-18T03:04:08.625Z,31.47
2022-08-18T03:06:37.171Z,33.80
2022-08-18T03:09:08.609Z,33.87
2022-08-18T03:11:36.088Z,32.60
2022-08-18T03:14:05.311Z,35.40
2022-08-18T03:16:33.284Z,33.93
2022-08-18T03:19:03.800Z,34.30
2022-08-18T03:21:35.695Z,39.77
2022-08-18T03:24:10.608Z,45.57
2022-08-18T03:26:42.004Z,43.07
2022-08-18T03:29:09.606Z,45.27
2022-08-18T03:31:38.080Z,47.37
2022-08-18T03:34:07.105Z,44.27
2022-08-18T03:36:35.377Z,48.23
2022-08-18T03:39:04.828Z,47.90
2022-08-18T03:41:57.192Z,46.40
2022-08-18T03:44:17.862Z,45.50
2022-08-18T03:46:45.397Z,38.87
2022-08-18T03:49:13.497Z,46.70
2022-08-18T03:51:43.636Z,47.60
2022-08-18T03:54:11.116Z,50.20
2022-08-18T03:56:39.000Z,48.67
2022-08-18T03:59:12.572Z,46.50
2022-08-18T04:01:41.975Z,48.10
2022-08-18T04:04:15.476Z,45.17
2022-08-18T04:06:50.030Z,48.10
2022-08-18T04:09:17.520Z,45.33
2022-08-18T04:11:45.294Z,46.23
2022-08-18T04:14:14.360Z,44.70
2022-08-18T04:16:41.764Z,43.90
2022-08-18T04:19:09.607Z,44.27
2022-08-18T04:21:39.339Z,42.50
2022-08-18T04:24:07.335Z,42.57
2022-08-18T04:26:36.718Z,42.03
2022-08-18T04:29:05.425Z,44.07
2022-08-18T04:31:32.287Z,41.83
2022-08-18T04:34:01.092Z,42.47
2022-08-18T04:36:28.875Z,40.90
2022-08-18T04:38:56.553Z,44.80
2022-08-18T04:41:30.048Z,41.53
2022-08-18T04:44:02.459Z,39.70
2022-08-18T04:46:29.924Z,39.13
2022-08-18T04:48:59.108Z,42.87
2022-08-18T04:52:26.720Z,41.27
2022-08-18T04:54:16.091Z,37.50
2022-08-18T04:56:42.757Z,38.80
2022-08-18T04:59:12.944Z,35.80
2022-08-18T05:01:48.306Z,37.90
2022-08-18T05:04:16.901Z,37.93
2022-08-18T05:06:44.760Z,37.73
2022-08-18T05:09:13.207Z,38.27
2022-08-18T05:11:44.434Z,38.37
2022-08-18T05:14:11.871Z,37.13
2022-08-18T05:16:48.095Z,34.80
2022-08-18T05:19:21.853Z,36.50
2022-08-18T05:21:53.342Z,37.90
2022-08-18T05:24:28.500Z,36.47
2022-08-18T05:26:57.197Z,33.53
2022-08-18T05:29:23.699Z,34.93
2022-08-18T05:31:53.066Z,33.10
2022-08-18T05:34:22.291Z,35.50
2022-08-18T05:36:48.701Z,34.80
2022-08-18T05:39:22.736Z,37.00
2022-08-18T05:41:51.235Z,35.83
2022-08-18T05:44:24.545Z,35.97
2022-08-18T05:46:56.467Z,35.23
2022-08-18T05:49:25.874Z,35.83
2022-08-18T05:51:57.640Z,34.60
2022-08-18T05:54:44.742Z,36.13
2022-08-18T05:57:18.929Z,37.13
2022-08-18T05:59:48.088Z,36.93
2022-08-18T06:02:32.263Z,48.00
2022-08-18T06:05:12.166Z,40.60
2022-08-18T06:07:54.439Z,35.70
2022-08-18T06:10:21.773Z,36.77
2022-08-18T06:12:52.088Z,35.03
2022-08-18T06:15:40.336Z,35.30
2022-08-18T06:18:18.911Z,35.23
2022-08-18T06:21:25.449Z,34.90
2022-08-18T06:24:05.058Z,34.77
2022-08-18T06:27:06.138Z,35.47
2022-08-18T06:29:51.275Z,36.37
2022-08-18T06:32:34.245Z,35.47
2022-08-18T06:35:28.408Z,36.30
2022-08-18T06:38:31.797Z,38.60
2022-08-18T06:41:08.500Z,41.10
2022-08-18T06:43:38.765Z,37.50
2022-08-18T06:46:21.949Z,38.57
2022-08-18T06:48:56.077Z,39.70
2022-08-18T06:51:27.581Z,41.93
2022-08-18T06:54:03.872Z,44.67
2022-08-18T06:56:48.887Z,44.17
2022-08-18T06:59:32.095Z,42.10
2022-08-18T07:02:19.623Z,44.63
2022-08-18T07:05:19.149Z,41.00
2022-08-18T07:07:46.895Z,42.80
2022-08-18T07:10:16.317Z,43.60
2022-08-18T07:12:42.798Z,41.97
2022-08-18T07:15:12.463Z,45.10
2022-08-18T07:17:51.465Z,46.83
2022-08-18T07:20:24.598Z,45.53
2022-08-18T07:22:55.159Z,44.17
2022-08-18T07:25:29.517Z,44.40
2022-08-18T07:27:56.733Z,43.97
2022-08-18T07:30:23.838Z,42.50
2022-08-18T07:33:13.838Z,42.17
2022-08-18T07:35:49.486Z,42.63
2022-08-18T07:38:42.722Z,43.33
2022-08-18T07:41:39.574Z,45.37
2022-08-18T07:44:18.345Z,43.33
2022-08-18T07:47:06.794Z,43.00
2022-08-18T07:49:36.420Z,42.60
2022-08-18T07:52:36.421Z,40.70
2022-08-18T07:55:15.779Z,44.67
2022-08-18T07:57:57.173Z,42.33
2022-08-18T08:00:58.028Z,42.47
2022-08-18T08:03:56.123Z,43.63
2022-08-18T08:06:31.155Z,43.63
2022-08-18T08:09:00.685Z,43.73
2022-08-18T08:11:48.592Z,43.30
2022-08-18T08:14:35.603Z,41.60
2022-08-18T08:17:28.932Z,40.50
2022-08-18T08:20:33.147Z,40.80
2022-08-18T08:23:09.377Z,37.67
2022-08-18T08:26:13.603Z,37.67
2022-08-18T08:29:06.296Z,39.40
2022-08-18T08:31:45.749Z,37.60
2022-08-18T08:34:12.168Z,38.77
2022-08-18T08:36:45.808Z,41.93
2022-08-18T08:39:26.478Z,38.70
2022-08-18T08:42:29.196Z,37.03
2022-08-18T08:44:59.926Z,37.00
2022-08-18T08:47:34.704Z,36.93
2022-08-18T08:50:13.166Z,35.00
2022-08-18T08:53:11.917Z,34.40
2022-08-18T08:55:47.284Z,34.80
2022-08-18T08:58:26.068Z,33.50
2022-08-18T09:00:55.057Z,31.80
2022-08-18T09:03:45.442Z,31.33
2022-08-18T09:06:30.308Z,32.40
2022-08-18T09:09:26.247Z,32.67
2022-08-18T09:12:04.796Z,30.97
2022-08-18T09:14:51.689Z,28.00
2022-08-18T09:17:38.105Z,28.83
2022-08-18T09:20:49.793Z,30.30
2022-08-18T09:23:24.708Z,27.10
2022-08-18T09:25:56.774Z,25.40
2022-08-18T09:28:56.204Z,27.30
2022-08-18T09:31:23.957Z,26.27
2022-08-18T09:34:15.709Z,27.43
2022-08-18T09:36:45.167Z,26.83
2022-08-18T09:39:53.912Z,28.73
2022-08-18T09:42:59.825Z,26.53
2022-08-18T09:45:33.708Z,27.40
2022-08-18T09:48:12.857Z,28.53
2022-08-18T09:50:57.204Z,27.33
2022-08-18T09:53:48.244Z,28.53
2022-08-18T10:01:52.647Z,33.37
2022-08-18T10:04:35.723Z,31.33
2022-08-18T10:07:38.932Z,31.00
2022-08-18T10:13:25.114Z,28.50
2022-08-18T10:16:10.657Z,29.13
2022-08-18T10:19:17.512Z,25.57
2022-08-18T10:21:56.154Z,27.07
2022-08-18T10:24:38.026Z,25.77
2022-08-18T10:27:29.381Z,26.03
2022-08-18T10:29:57.786Z,25.30
2022-08-18T10:32:38.151Z,24.90
2022-08-18T10:35:06.248Z,23.70
2022-08-18T10:37:43.506Z,24.70
2022-08-18T10:40:10.075Z,24.10
2022-08-18T10:43:01.363Z,22.10
2022-08-18T10:45:59.369Z,23.80
2022-08-18T10:48:34.506Z,21.90
2022-08-18T10:54:23.349Z,20.90
2022-08-18T10:56:57.544Z,18.67
2022-08-18T10:59:54.668Z,17.87
2022-08-18T11:02:21.235Z,18.17
2022-08-18T11:04:58.583Z,18.27
2022-08-18T11:13:10.995Z,16.83
2022-08-18T11:15:59.940Z,16.20
2022-08-18T11:18:32.693Z,17.03
2022-08-18T11:21:22.634Z,20.03
2022-08-18T11:24:32.264Z,20.13
2022-08-18T11:27:15.242Z,19.60
2022-08-18T11:29:43.069Z,20.20
2022-08-18T11:32:32.795Z,18.67
2022-08-18T11:35:16.198Z,18.73
2022-08-18T11:37:53.459Z,18.70
2022-08-18T11:41:02.426Z,18.93
2022-08-18T11:43:13.227Z,17.30
2022-08-18T11:45:55.780Z,18.90
2022-08-18T11:48:39.100Z,18.90
2022-08-18T11:51:28.487Z,20.13
2022-08-18T11:54:02.552Z,21.50
2022-08-18T11:56:35.888Z,20.30
2022-08-18T11:59:09.298Z,21.80
2022-08-18T12:01:51.331Z,20.03
2022-08-18T12:04:38.434Z,21.30
2022-08-18T12:07:09.784Z,22.20
2022-08-18T12:10:16.789Z,21.37
2022-08-18T12:12:34.940Z,21.27
2022-08-18T12:15:24.001Z,20.10
2022-08-18T12:17:53.671Z,21.40
2022-08-18T12:20:21.924Z,22.30
2022-08-18T12:22:49.937Z,22.50
2022-08-18T12:25:25.024Z,22.27
2022-08-18T12:27:53.389Z,20.20
2022-08-18T12:30:20.102Z,20.70
2022-08-18T12:32:50.723Z,22.40
2022-08-18T12:35:22.635Z,19.73
2022-08-18T12:38:12.940Z,20.67
2022-08-18T12:40:36.386Z,19.90
2022-08-18T12:43:03.153Z,19.77
2022-08-18T12:45:32.728Z,21.50
2022-08-18T12:48:02.414Z,20.23
2022-08-18T12:50:36.151Z,19.57
2022-08-18T12:53:05.090Z,20.20
2022-08-18T12:58:23.440Z,19.80
2022-08-18T13:00:51.465Z,19.00
2022-08-18T13:03:19.194Z,19.17
2022-08-18T13:05:45.757Z,18.17
2022-08-18T13:08:30.676Z,17.90
2022-08-18T13:11:15.168Z,19.73
2022-08-18T13:13:53.177Z,14.90
2022-08-18T13:16:38.606Z,17.30
2022-08-18T13:19:07.214Z,18.97
2022-08-18T13:21:41.029Z,19.20
2022-08-18T13:24:09.409Z,17.70
2022-08-18T13:26:39.985Z,17.63
2022-08-18T13:29:10.175Z,20.00
2022-08-18T13:31:38.027Z,19.40
2022-08-18T13:34:11.887Z,23.63
2022-08-18T13:36:46.059Z,21.10
2022-08-18T13:39:18.916Z,22.50
2022-08-18T13:41:47.594Z,23.27
2022-08-18T13:44:18.751Z,23.77
2022-08-18T13:46:47.352Z,24.80
2022-08-18T13:49:18.580Z,23.10
2022-08-18T13:52:00.758Z,23.83
2022-08-18T13:54:35.248Z,22.03
2022-08-18T13:57:03.141Z,21.57
2022-08-18T13:59:33.212Z,20.30
2022-08-18T14:02:05.834Z,20.53
2022-08-18T14:04:36.201Z,20.23
2022-08-18T14:07:07.292Z,19.30
2022-08-18T14:09:38.029Z,20.37
2022-08-18T14:12:15.765Z,20.77
2022-08-18T14:14:51.899Z,21.03
2022-08-18T14:17:19.792Z,20.97
2022-08-18T14:20:10.328Z,20.70
2022-08-18T14:22:55.916Z,20.97
2022-08-18T14:25:41.181Z,20.70
2022-08-18T14:28:09.235Z,21.53
2022-08-18T14:30:39.392Z,18.97
2022-08-18T14:33:07.771Z,20.60
2022-08-18T14:36:06.475Z,21.23
2022-08-18T14:38:24.832Z,20.67
2022-08-18T14:40:51.671Z,19.80
2022-08-18T14:43:24.994Z,20.30
2022-08-18T14:45:53.696Z,18.83
2022-08-18T14:48:27.303Z,18.50
2022-08-18T14:50:56.136Z,17.47
2022-08-18T14:53:26.995Z,17.80
2022-08-18T14:55:54.930Z,18.10
2022-08-18T14:58:27.808Z,17.10
2022-08-18T15:00:56.749Z,15.50
2022-08-18T15:03:28.315Z,15.50
2022-08-18T15:06:00.495Z,14.47
2022-08-18T15:08:27.689Z,14.70
2022-08-18T15:10:56.210Z,16.27
2022-08-18T15:13:26.518Z,14.67
2022-08-18T15:15:55.808Z,21.07
2022-08-18T15:18:29.552Z,20.30
2022-08-18T15:21:34.886Z,11.20
2022-08-18T15:24:22.243Z,10.67
2022-08-18T15:26:58.246Z,10.63
2022-08-18T15:29:29.848Z,10.20
2022-08-18T15:32:01.934Z,9.47
2022-08-18T15:34:30.071Z,17.07
2022-08-18T15:36:57.407Z,11.20
2022-08-18T15:39:36.385Z,8.40
2022-08-18T15:42:10.235Z,7.93
2022-08-18T15:44:37.122Z,8.17
2022-08-18T15:47:05.849Z,7.70
2022-08-18T15:49:36.040Z,7.63
2022-08-18T15:52:02.732Z,7.80
2022-08-18T15:54:29.296Z,7.73
2022-08-18T15:56:58.269Z,7.47
2022-08-18T15:59:27.059Z,7.30
2022-08-18T16:02:02.113Z,6.80
2022-08-18T16:04:28.656Z,7.17
2022-08-18T16:06:56.057Z,6.50
2022-08-18T16:09:22.685Z,6.40
2022-08-18T16:11:49.235Z,6.30
2022-08-18T16:14:15.699Z,6.23
2022-08-18T16:16:42.185Z,6.20
2022-08-18T16:19:08.670Z,5.77
2022-08-18T16:21:39.563Z,5.60
2022-08-18T16:24:07.242Z,6.20
2022-08-18T16:26:33.952Z,5.67
2022-08-18T16:29:02.015Z,6.30
2022-08-18T16:31:29.370Z,6.40
2022-08-18T16:33:58.009Z,5.60
2022-08-18T16:36:25.720Z,5.27
2022-08-18T16:38:53.612Z,5.47
2022-08-18T16:41:20.894Z,5.40
2022-08-18T16:43:47.600Z,5.33
2022-08-18T16:46:18.472Z,5.43
2022-08-18T16:48:45.860Z,5.30
2022-08-18T16:51:14.323Z,6.20
2022-08-18T16:53:41.019Z,5.87
2022-08-18T16:56:12.888Z,6.90
2022-08-18T16:58:57.936Z,5.20
2022-08-18T17:01:49.075Z,5.53
2022-08-18T17:04:20.632Z,5.37
2022-08-18T17:06:47.943Z,5.87
2022-08-18T17:09:15.358Z,5.37
2022-08-18T17:11:48.189Z,7.97
2022-08-18T17:14:20.665Z,5.97
2022-08-18T17:16:49.611Z,5.20
2022-08-18T17:19:18.958Z,31.10
2022-08-18T17:21:45.907Z,9.90
2022-08-18T17:24:12.548Z,5.37
2022-08-18T17:26:44.514Z,5.37
2022-08-18T17:29:25.712Z,5.27
2022-08-18T17:32:04.598Z,5.60
2022-08-18T17:34:39.450Z,5.70
2022-08-18T17:37:10.509Z,5.00
2022-08-18T17:39:51.344Z,4.97
2022-08-18T17:42:26.900Z,5.17
2022-08-18T17:44:59.064Z,4.97
2022-08-18T17:47:33.359Z,4.80
2022-08-18T17:50:27.883Z,5.33
2022-08-18T17:53:05.338Z,5.67
2022-08-18T17:55:39.354Z,16.60
2022-08-18T17:58:25.337Z,7.50
2022-08-18T18:00:52.530Z,7.73
2022-08-18T18:03:19.250Z,6.53
2022-08-18T18:05:51.807Z,5.93
2022-08-18T18:08:18.444Z,5.23
2022-08-18T18:11:04.348Z,5.20
2022-08-18T18:13:34.787Z,5.60
2022-08-18T18:16:21.095Z,5.40
2022-08-18T18:19:00.891Z,5.00
2022-08-18T18:21:55.283Z,5.60
2022-08-18T18:24:15.466Z,5.27
2022-08-18T18:26:48.109Z,5.03
2022-08-18T18:29:37.720Z,5.67
2022-08-18T18:32:38.865Z,5.10
2022-08-18T18:35:13.511Z,5.50
2022-08-18T18:37:52.815Z,4.90
2022-08-18T18:40:27.444Z,5.10
2022-08-18T18:42:55.707Z,5.30
2022-08-18T18:45:28.629Z,5.30
2022-08-18T18:48:38.679Z,30.67
2022-08-18T18:51:19.313Z,47.90
2022-08-18T18:54:15.477Z,9.90
2022-08-18T18:56:56.555Z,7.00
2022-08-18T18:59:52.897Z,6.00
2022-08-18T19:02:34.739Z,5.63
2022-08-18T19:05:30.971Z,5.27
2022-08-18T19:08:17.219Z,6.27
2022-08-18T19:10:59.446Z,7.53
2022-08-18T19:13:34.944Z,6.30
2022-08-18T19:16:24.714Z,7.07
2022-08-18T19:18:59.766Z,6.60
2022-08-18T19:22:03.382Z,6.10
2022-08-18T19:24:37.527Z,6.53
2022-08-18T19:27:06.750Z,6.50
2022-08-18T19:29:40.628Z,25.63
2022-08-18T19:32:16.641Z,10.13
2022-08-18T19:34:52.836Z,6.40
2022-08-18T19:37:56.317Z,6.70
2022-08-18T19:40:29.262Z,6.07
2022-08-18T19:43:23.663Z,7.10
2022-08-18T19:45:59.306Z,6.70
2022-08-18T19:48:34.807Z,8.87
2022-08-18T19:51:08.107Z,6.30
2022-08-18T19:53:53.396Z,6.83
2022-08-18T19:56:50.935Z,6.90
2022-08-18T19:59:23.376Z,7.20
2022-08-18T20:01:52.128Z,9.03
2022-08-18T20:04:49.198Z,6.20
2022-08-18T20:07:37.911Z,7.47
2022-08-18T20:10:25.766Z,22.40
2022-08-18T20:13:11.697Z,7.70
2022-08-18T20:16:10.856Z,7.00
2022-08-18T20:18:43.596Z,30.17
2022-08-18T20:21:16.516Z,32.87
2022-08-18T20:24:08.525Z,11.50
2022-08-18T20:26:35.058Z,25.77
2022-08-18T20:29:02.248Z,20.53
2022-08-18T20:31:45.104Z,9.50
2022-08-18T20:34:14.693Z,7.10
2022-08-18T20:36:43.699Z,6.53
2022-08-18T20:39:32.126Z,7.30
2022-08-18T20:42:01.114Z,8.50
2022-08-18T20:44:29.559Z,9.83
2022-08-18T20:47:24.318Z,29.93
2022-08-18T20:50:12.872Z,12.23
2022-08-18T20:53:00.370Z,7.83
2022-08-18T20:55:42.013Z,7.60
2022-08-18T20:58:20.880Z,7.73
2022-08-18T21:00:57.304Z,7.03
2022-08-18T21:03:35.619Z,6.50
2022-08-18T21:06:02.926Z,7.73
2022-08-18T21:08:32.931Z,6.93
2022-08-18T21:11:02.942Z,7.60
2022-08-18T21:13:31.506Z,6.67
2022-08-18T21:15:58.300Z,6.57
2022-08-18T21:18:26.097Z,7.00
2022-08-18T21:20:56.076Z,7.27
2022-08-18T21:23:29.799Z,6.70
2022-08-18T21:26:02.811Z,6.70
2022-08-18T21:28:36.183Z,6.93
2022-08-18T21:31:28.971Z,7.47
2022-08-18T21:34:00.508Z,6.67
2022-08-18T21:36:32.392Z,6.67
2022-08-18T21:39:06.682Z,7.20
2022-08-18T21:41:39.293Z,8.67
2022-08-18T21:44:21.879Z,7.50
2022-08-18T21:46:48.832Z,7.67
2022-08-18T21:49:28.184Z,28.87
2022-08-18T21:51:54.740Z,21.30
2022-08-18T21:54:24.737Z,12.20
2022-08-18T21:57:27.374Z,10.17
2022-08-18T22:00:17.208Z,7.63
2022-08-18T22:02:45.296Z,16.47
2022-08-18T22:05:12.478Z,8.20
2022-08-18T22:07:48.605Z,7.67
2022-08-18T22:10:44.363Z,7.70
2022-08-18T22:13:42.054Z,7.40
2022-08-18T22:16:36.546Z,20.80
2022-08-18T22:19:19.110Z,8.00
2022-08-18T22:21:49.894Z,7.33
2022-08-18T22:24:19.722Z,7.10
2022-08-18T22:27:04.356Z,6.60
2022-08-18T22:29:45.819Z,6.60
2022-08-18T22:32:13.603Z,6.10
2022-08-18T22:34:40.620Z,6.63
2022-08-18T22:37:15.236Z,6.83
2022-08-18T22:40:02.069Z,6.57
2022-08-18T22:42:32.879Z,7.00
2022-08-18T22:45:04.891Z,7.00
2022-08-18T22:47:43.260Z,6.30
2022-08-18T22:50:13.068Z,6.50
2022-08-18T22:52:48.202Z,6.63
2022-08-18T22:55:20.212Z,6.57
2022-08-18T22:57:50.972Z,7.00
2022-08-18T23:00:22.888Z,6.97
2022-08-18T23:02:49.932Z,6.80
2022-08-18T23:05:16.604Z,6.30
2022-08-18T23:07:43.079Z,6.67
2022-08-18T23:10:13.664Z,6.20
2022-08-18T23:12:43.114Z,5.73
2022-08-18T23:15:13.006Z,6.27
2022-08-18T23:17:41.068Z,6.40
2022-08-18T23:20:17.679Z,6.67
2022-08-18T23:22:45.502Z,6.57
2022-08-18T23:25:13.353Z,6.13
2022-08-18T23:27:40.856Z,6.60
2022-08-18T23:30:07.963Z,9.67
2022-08-18T23:32:34.441Z,6.70
2022-08-18T23:35:00.961Z,6.50
2022-08-18T23:37:27.543Z,6.33
2022-08-18T23:39:54.025Z,6.47
2022-08-18T23:42:22.967Z,5.77
2022-08-18T23:44:49.880Z,5.93
2022-08-18T23:47:18.477Z,6.33
2022-08-18T23:49:44.945Z,5.73
2022-08-18T23:52:11.476Z,6.70
2022-08-18T23:54:38.905Z,6.67
2022-08-18T23:57:05.675Z,6.77
2022-08-18T23:59:32.188Z,6.00
